Terminal Aerodrome Forecast
Issued by NWS

Home | Current Version | Previous Version | Graphics & Text | Print | Product List | Glossary On
Versions: 1 2 3 4 5 6 7 8 9 10 11 12 13 14 15 16 17 18 19
000
FTUS42 KMHX 210521
TAFOAJ
TAF
KOAJ 210521Z 2106/2206 17003KT P6SM OVC007
     FM211300 04005KT P6SM BKN015
     FM211600 05005KT P6SM BKN020
     FM212200 10005KT P6SM BKN035
      AMD LTD TO CLD VIS AND WIND=

USA.gov is the U.S. government's official web portal to all federal, state and local government web resources and services.